createdAt,value
2018-07-24T00:00:22.811Z,14.07
2018-07-24T00:02:51.270Z,11.30
2018-07-24T00:05:19.922Z,10.87
2018-07-24T00:07:48.369Z,9.03
2018-07-24T00:10:16.871Z,10.87
2018-07-24T00:12:45.326Z,9.37
2018-07-24T00:15:13.794Z,8.90
2018-07-24T00:17:42.242Z,9.87
2018-07-24T00:20:10.598Z,8.77
2018-07-24T00:22:39.046Z,9.23
2018-07-24T00:25:07.498Z,8.93
2018-07-24T00:27:35.932Z,9.37
2018-07-24T00:30:04.615Z,10.63
2018-07-24T00:32:33.038Z,8.87
2018-07-24T00:35:01.484Z,8.73
2018-07-24T00:37:29.954Z,8.90
2018-07-24T00:39:58.402Z,9.47
2018-07-24T00:42:26.848Z,8.57
2018-07-24T00:44:55.350Z,8.87
2018-07-24T00:47:23.798Z,9.10
2018-07-24T00:49:52.238Z,8.53
2018-07-24T00:52:20.718Z,8.90
2018-07-24T00:54:49.169Z,9.20
2018-07-24T00:57:17.600Z,9.50
2018-07-24T00:59:46.203Z,8.90
2018-07-24T01:02:14.829Z,9.63
2018-07-24T01:04:43.269Z,8.73
2018-07-24T01:07:11.923Z,9.37
2018-07-24T01:09:40.520Z,8.53
2018-07-24T01:12:09.115Z,8.93
2018-07-24T01:14:37.742Z,9.40
2018-07-24T01:17:06.343Z,8.63
2018-07-24T01:19:34.956Z,9.17
2018-07-24T01:22:03.663Z,8.37
2018-07-24T01:24:32.336Z,8.87
2018-07-24T01:27:00.931Z,9.13
2018-07-24T01:29:29.526Z,9.53
2018-07-24T01:31:58.131Z,8.80
2018-07-24T01:34:26.725Z,10.80
2018-07-24T01:36:55.328Z,8.67
2018-07-24T01:39:23.940Z,7.93
2018-07-24T01:41:52.574Z,8.53
2018-07-24T01:44:21.231Z,8.53
2018-07-24T01:46:49.816Z,8.27
2018-07-24T01:49:18.433Z,9.10
2018-07-24T01:51:47.044Z,10.03
2018-07-24T01:54:15.680Z,9.30
2018-07-24T01:56:44.275Z,8.60
2018-07-24T01:59:12.907Z,10.23
2018-07-24T02:01:42.547Z,10.03
2018-07-24T02:04:11.160Z,9.17
2018-07-24T02:06:39.860Z,8.50
2018-07-24T02:09:09.812Z,9.53
2018-07-24T02:11:38.399Z,9.40
2018-07-24T02:14:07.252Z,9.33
2018-07-24T02:16:35.838Z,9.30
2018-07-24T02:19:04.472Z,9.90
2018-07-24T02:21:33.072Z,9.97
2018-07-24T02:24:01.670Z,9.80
2018-07-24T02:26:30.264Z,10.63
2018-07-24T02:28:58.990Z,9.37
2018-07-24T02:31:27.575Z,10.23
2018-07-24T02:33:56.173Z,8.93
2018-07-24T02:36:24.817Z,9.97
2018-07-24T02:38:53.425Z,9.10
2018-07-24T02:41:22.048Z,9.57
2018-07-24T02:43:50.652Z,9.13
2018-07-24T02:46:19.251Z,9.50
2018-07-24T02:48:47.849Z,9.50
2018-07-24T02:51:16.428Z,9.67
2018-07-24T02:53:45.049Z,9.57
2018-07-24T02:56:13.640Z,9.27
2018-07-24T02:58:42.244Z,8.90
2018-07-24T03:01:10.856Z,9.93
2018-07-24T03:03:39.456Z,10.53
2018-07-24T03:06:08.060Z,9.30
2018-07-24T03:08:36.671Z,8.87
2018-07-24T03:11:05.387Z,9.47
2018-07-24T03:13:34.260Z,9.50
2018-07-24T03:16:02.916Z,9.37
2018-07-24T03:18:31.528Z,9.70
2018-07-24T03:21:00.128Z,9.83
2018-07-24T03:23:28.751Z,9.17
2018-07-24T03:25:57.379Z,9.00
2018-07-24T03:28:25.983Z,9.37
2018-07-24T03:30:54.615Z,9.37
2018-07-24T03:33:23.257Z,9.60
2018-07-24T03:35:51.891Z,10.20
2018-07-24T03:38:20.488Z,9.20
2018-07-24T03:40:49.097Z,9.83
2018-07-24T03:43:17.708Z,9.87
2018-07-24T03:45:46.316Z,9.87
2018-07-24T03:48:14.914Z,11.50
2018-07-24T03:50:43.540Z,9.83
2018-07-24T03:53:12.319Z,9.13
2018-07-24T03:55:40.972Z,9.87
2018-07-24T03:58:09.718Z,9.60
2018-07-24T04:00:38.334Z,9.90
2018-07-24T04:03:07.068Z,9.43
2018-07-24T04:05:35.679Z,9.30
2018-07-24T04:08:04.372Z,11.60
2018-07-24T04:10:33.031Z,10.30
2018-07-24T04:13:01.690Z,9.90
2018-07-24T04:15:30.320Z,10.00
2018-07-24T04:17:58.936Z,10.10
2018-07-24T04:20:27.584Z,9.87
2018-07-24T04:22:56.260Z,10.73
2018-07-24T04:25:24.905Z,9.30
2018-07-24T04:27:53.628Z,10.17
2018-07-24T04:30:22.240Z,10.27
2018-07-24T04:32:50.859Z,9.90
2018-07-24T04:35:19.469Z,10.33
2018-07-24T04:37:48.081Z,9.03
2018-07-24T04:40:16.833Z,9.60
2018-07-24T04:42:45.372Z,9.47
2018-07-24T04:45:14.036Z,10.23
2018-07-24T04:47:42.649Z,9.40
2018-07-24T04:50:10.981Z,9.83
2018-07-24T04:52:39.608Z,10.03
2018-07-24T04:55:08.232Z,10.33
2018-07-24T04:57:36.867Z,9.80
2018-07-24T05:00:06.416Z,9.50
2018-07-24T05:02:35.023Z,10.57
2018-07-24T05:07:40.955Z,10.10
2018-07-24T05:10:28.272Z,9.60
2018-07-24T05:13:06.823Z,10.60
2018-07-24T05:15:35.804Z,10.63
2018-07-24T05:18:04.486Z,11.30
2018-07-24T05:20:33.174Z,10.73
2018-07-24T05:23:01.819Z,11.57
2018-07-24T05:25:30.451Z,9.43
2018-07-24T05:27:59.112Z,10.37
2018-07-24T05:30:27.370Z,10.37
2018-07-24T05:32:55.990Z,10.30
2018-07-24T05:35:24.611Z,10.83
2018-07-24T05:37:53.224Z,10.00
2018-07-24T05:40:21.836Z,10.73
2018-07-24T05:42:50.475Z,9.70
2018-07-24T05:45:19.108Z,8.97
2018-07-24T05:47:47.753Z,9.93
2018-07-24T05:50:16.407Z,9.57
2018-07-24T05:52:45.082Z,10.00
2018-07-24T05:55:13.771Z,9.30
2018-07-24T05:57:42.447Z,9.17
2018-07-24T06:00:11.112Z,9.50
2018-07-24T06:02:39.740Z,8.33
2018-07-24T06:05:08.440Z,9.40
2018-07-24T06:07:37.296Z,8.67
2018-07-24T06:10:06.478Z,8.77
2018-07-24T06:12:35.176Z,8.00
2018-07-24T06:15:05.630Z,7.80
2018-07-24T06:20:13.987Z,7.90
2018-07-24T06:22:42.669Z,8.10
2018-07-24T06:25:11.361Z,7.47
2018-07-24T06:27:41.337Z,7.70
2018-07-24T06:30:10.092Z,7.67
2018-07-24T06:32:38.757Z,7.57
2018-07-24T06:35:08.472Z,6.87
2018-07-24T06:37:37.595Z,7.20
2018-07-24T06:40:08.077Z,8.10
2018-07-24T06:42:44.860Z,7.00
2018-07-24T06:45:17.684Z,7.70
2018-07-24T06:47:46.748Z,7.60
2018-07-24T06:50:17.051Z,6.50
2018-07-24T06:52:47.659Z,7.37
2018-07-24T06:55:20.110Z,6.50
2018-07-24T06:57:48.788Z,6.30
2018-07-24T07:00:17.629Z,7.70
2018-07-24T07:02:58.519Z,6.80
2018-07-24T07:05:33.109Z,7.23
2018-07-24T07:08:01.788Z,7.40
2018-07-24T07:10:30.565Z,7.50
2018-07-24T07:12:59.257Z,6.58
2018-07-24T07:15:27.959Z,6.85
2018-07-24T07:17:56.634Z,7.08
2018-07-24T07:20:25.337Z,6.90
2018-07-24T07:22:54.141Z,7.50
2018-07-24T07:25:22.804Z,8.63
2018-07-24T07:27:51.428Z,8.30
2018-07-24T07:30:20.095Z,6.78
2018-07-24T07:32:48.837Z,8.18
2018-07-24T07:35:18.375Z,6.90
2018-07-24T07:37:47.015Z,6.65
2018-07-24T07:40:15.683Z,7.22
2018-07-24T07:42:44.340Z,7.80
2018-07-24T07:45:13.033Z,6.95
2018-07-24T07:47:41.683Z,6.78
2018-07-24T07:50:10.334Z,7.22
2018-07-24T07:52:38.956Z,7.22
2018-07-24T07:55:07.634Z,7.45
2018-07-24T07:57:36.279Z,23.00
2018-07-24T08:00:05.125Z,8.00
2018-07-24T08:02:34.787Z,8.28
2018-07-24T08:05:03.549Z,6.80
2018-07-24T08:07:32.191Z,9.25
2018-07-24T08:10:00.904Z,6.90
2018-07-24T08:12:30.069Z,6.42
2018-07-24T08:14:58.678Z,7.12
2018-07-24T08:17:27.408Z,7.53
2018-07-24T08:19:56.111Z,6.92
2018-07-24T08:22:24.847Z,8.08
2018-07-24T08:24:53.474Z,6.47
2018-07-24T08:27:22.116Z,7.35
2018-07-24T08:29:50.811Z,6.78
2018-07-24T08:32:19.486Z,7.60
2018-07-24T08:34:48.156Z,7.33
2018-07-24T08:37:16.822Z,8.03
2018-07-24T08:39:45.472Z,7.13
2018-07-24T08:42:14.120Z,7.63
2018-07-24T08:44:42.789Z,7.93
2018-07-24T08:47:11.416Z,7.43
2018-07-24T08:49:40.076Z,7.17
2018-07-24T08:52:08.840Z,7.17
2018-07-24T08:54:37.622Z,7.10
2018-07-24T08:57:06.188Z,7.30
2018-07-24T08:59:34.868Z,7.07
2018-07-24T09:02:03.532Z,8.47
2018-07-24T09:04:32.178Z,8.03
2018-07-24T09:07:00.889Z,7.50
2018-07-24T09:09:30.671Z,8.57
2018-07-24T09:11:59.349Z,7.90
2018-07-24T09:14:28.003Z,8.10
2018-07-24T09:16:56.647Z,7.00
2018-07-24T09:19:25.259Z,7.27
2018-07-24T09:21:53.935Z,7.13
2018-07-24T09:24:22.564Z,7.67
2018-07-24T09:26:51.304Z,7.33
2018-07-24T09:29:19.879Z,7.23
2018-07-24T09:31:48.527Z,7.97
2018-07-24T09:34:17.157Z,9.77
2018-07-24T09:36:45.816Z,7.37
2018-07-24T09:39:14.439Z,7.80
2018-07-24T09:41:43.097Z,7.30
2018-07-24T09:44:11.728Z,6.67
2018-07-24T09:46:40.381Z,7.67
2018-07-24T09:49:09.048Z,7.40
2018-07-24T09:51:37.671Z,8.00
2018-07-24T09:54:06.353Z,9.58
2018-07-24T09:56:34.989Z,7.80
2018-07-24T09:59:03.652Z,7.78
2018-07-24T10:01:34.377Z,11.12
2018-07-24T10:04:03.992Z,11.75
2018-07-24T10:06:33.681Z,8.35
2018-07-24T10:09:02.461Z,9.85
2018-07-24T10:11:31.158Z,10.28
2018-07-24T10:13:59.809Z,7.33
2018-07-24T10:16:28.459Z,8.03
2018-07-24T10:18:57.220Z,6.92
2018-07-24T10:21:25.886Z,7.08
2018-07-24T10:23:54.570Z,9.15
2018-07-24T10:26:23.301Z,7.90
2018-07-24T10:28:51.948Z,7.55
2018-07-24T10:31:20.601Z,8.55
2018-07-24T10:33:49.268Z,8.03
2018-07-24T10:36:17.924Z,7.55
2018-07-24T10:38:46.597Z,7.50
2018-07-24T10:41:15.264Z,7.95
2018-07-24T10:43:43.961Z,7.97
2018-07-24T10:46:12.600Z,7.97
2018-07-24T10:48:41.284Z,8.30
2018-07-24T10:51:09.989Z,9.55
2018-07-24T10:53:38.267Z,8.90
2018-07-24T10:56:06.937Z,7.40
2018-07-24T10:58:35.580Z,7.78
2018-07-24T11:01:04.299Z,9.10
2018-07-24T11:03:32.965Z,7.15
2018-07-24T11:06:01.725Z,7.05
2018-07-24T11:08:30.384Z,7.37
2018-07-24T11:10:59.036Z,7.75
2018-07-24T11:13:27.712Z,6.00
2018-07-24T11:15:56.356Z,5.53
2018-07-24T11:18:25.005Z,6.60
2018-07-24T11:20:53.693Z,5.78
2018-07-24T11:23:22.341Z,5.78
2018-07-24T11:25:51.042Z,5.28
2018-07-24T11:28:19.693Z,7.17
2018-07-24T11:30:48.940Z,6.08
2018-07-24T11:33:17.589Z,6.17
2018-07-24T11:35:46.336Z,5.87
2018-07-24T11:38:15.000Z,6.12
2018-07-24T11:40:43.633Z,5.62
2018-07-24T11:43:12.349Z,6.22
2018-07-24T11:45:40.998Z,5.80
2018-07-24T11:48:09.677Z,5.30
2018-07-24T11:50:38.307Z,6.62
2018-07-24T11:53:07.017Z,4.92
2018-07-24T11:55:35.637Z,5.35
2018-07-24T11:58:04.373Z,5.15
2018-07-24T12:00:32.991Z,4.83
2018-07-24T12:03:01.668Z,5.42
2018-07-24T12:05:30.340Z,4.62
2018-07-24T12:07:59.037Z,7.12
2018-07-24T12:10:27.695Z,4.92
2018-07-24T12:12:56.335Z,5.80
2018-07-24T12:15:25.009Z,4.15
2018-07-24T12:17:54.135Z,5.20
2018-07-24T12:20:22.941Z,5.92
2018-07-24T12:22:51.585Z,4.33
2018-07-24T12:25:20.340Z,5.03
2018-07-24T12:27:49.009Z,4.90
2018-07-24T12:30:17.630Z,9.43
2018-07-24T12:32:46.288Z,5.05
2018-07-24T12:35:14.966Z,5.75
2018-07-24T12:37:43.623Z,5.80
2018-07-24T12:40:12.312Z,4.70
2018-07-24T12:42:40.976Z,4.78
2018-07-24T12:45:09.617Z,4.95
2018-07-24T12:47:38.256Z,4.62
2018-07-24T12:50:07.274Z,4.45
2018-07-24T12:52:36.008Z,6.03
2018-07-24T12:55:04.928Z,5.12
2018-07-24T12:57:33.660Z,4.30
2018-07-24T13:00:02.562Z,4.70
2018-07-24T13:02:31.206Z,5.17
2018-07-24T13:04:59.918Z,4.65
2018-07-24T13:07:28.586Z,5.40
2018-07-24T13:09:57.272Z,4.25
2018-07-24T13:12:26.761Z,4.72
2018-07-24T13:14:55.446Z,4.58
2018-07-24T13:17:24.121Z,4.58
2018-07-24T13:19:52.829Z,4.55
2018-07-24T13:22:21.479Z,4.45
2018-07-24T13:24:50.136Z,4.12
2018-07-24T13:27:18.844Z,4.53
2018-07-24T13:29:47.547Z,5.28
2018-07-24T13:32:16.189Z,5.47
2018-07-24T13:34:44.850Z,4.08
2018-07-24T13:37:13.531Z,4.55
2018-07-24T13:39:42.185Z,5.15
2018-07-24T13:42:10.853Z,4.70
2018-07-24T13:44:39.511Z,4.47
2018-07-24T13:47:08.170Z,4.67
2018-07-24T13:49:37.630Z,5.03
2018-07-24T13:52:06.535Z,6.10
2018-07-24T13:54:36.520Z,7.35
2018-07-24T13:57:05.803Z,3.83
2018-07-24T13:59:34.430Z,5.50
2018-07-24T14:02:03.257Z,4.15
2018-07-24T14:04:32.793Z,6.50
2018-07-24T14:07:01.456Z,4.80
2018-07-24T14:09:30.087Z,3.92
2018-07-24T14:12:00.590Z,4.97
2018-07-24T14:14:31.304Z,4.30
2018-07-24T14:17:00.092Z,4.80
2018-07-24T14:19:28.748Z,5.12
2018-07-24T14:21:57.741Z,6.35
2018-07-24T14:24:26.485Z,5.12
2018-07-24T14:26:55.215Z,5.37
2018-07-24T14:29:23.940Z,6.22
2018-07-24T14:31:52.619Z,5.10
2018-07-24T14:34:21.276Z,5.50
2018-07-24T14:36:49.944Z,5.72
2018-07-24T14:39:18.597Z,6.20
2018-07-24T14:41:47.243Z,6.12
2018-07-24T14:44:15.924Z,6.95
2018-07-24T14:46:44.568Z,6.40
2018-07-24T14:49:13.267Z,5.65
2018-07-24T14:51:41.952Z,5.67
2018-07-24T14:54:10.600Z,11.63
2018-07-24T14:56:39.277Z,5.20
2018-07-24T14:59:07.951Z,4.80
2018-07-24T15:01:36.647Z,5.22
2018-07-24T15:04:05.326Z,6.08
2018-07-24T15:06:34.023Z,5.60
2018-07-24T15:09:02.800Z,6.00
2018-07-24T15:11:31.577Z,7.80
2018-07-24T15:14:00.303Z,5.87
2018-07-24T15:16:29.557Z,9.95
2018-07-24T15:18:58.348Z,5.85
2018-07-24T15:21:27.004Z,5.75
2018-07-24T15:23:55.662Z,8.85
2018-07-24T15:26:24.325Z,6.37
2018-07-24T15:28:53.123Z,5.80
2018-07-24T15:31:21.841Z,6.12
2018-07-24T15:33:50.520Z,8.15
2018-07-24T15:36:19.170Z,5.63
2018-07-24T15:38:47.805Z,5.28
2018-07-24T15:41:16.503Z,4.75
2018-07-24T15:43:45.223Z,4.92
2018-07-24T15:46:13.864Z,5.17
2018-07-24T15:48:42.558Z,5.63
2018-07-24T15:51:11.263Z,6.40
2018-07-24T15:53:39.973Z,5.50
2018-07-24T15:56:16.416Z,7.83
2018-07-24T15:58:45.231Z,5.90
2018-07-24T16:01:16.970Z,7.23
2018-07-24T16:03:45.588Z,5.25
2018-07-24T16:06:14.284Z,6.30
2018-07-24T16:08:42.944Z,6.57
2018-07-24T16:11:11.580Z,6.77
2018-07-24T16:13:40.272Z,6.17
2018-07-24T16:16:08.939Z,6.70
2018-07-24T16:18:37.585Z,4.77
2018-07-24T16:21:06.338Z,6.47
2018-07-24T16:23:35.043Z,6.80
2018-07-24T16:26:03.875Z,5.37
2018-07-24T16:28:32.621Z,7.03
2018-07-24T16:31:01.271Z,6.33
2018-07-24T16:33:30.905Z,8.03
2018-07-24T16:35:59.677Z,5.43
2018-07-24T16:38:28.329Z,7.90
2018-07-24T16:40:56.986Z,7.03
2018-07-24T16:43:25.627Z,5.93
2018-07-24T16:45:54.259Z,5.10
2018-07-24T16:48:22.938Z,6.43
2018-07-24T16:50:51.595Z,6.33
2018-07-24T16:53:20.292Z,8.40
2018-07-24T16:55:49.399Z,8.37
2018-07-24T16:58:18.049Z,5.83
2018-07-24T17:00:46.722Z,6.50
2018-07-24T17:03:15.505Z,6.37
2018-07-24T17:05:47.224Z,7.53
2018-07-24T17:08:20.158Z,7.30
2018-07-24T17:10:52.969Z,10.20
2018-07-24T17:13:22.316Z,8.37
2018-07-24T17:15:53.054Z,7.17
2018-07-24T17:18:22.637Z,7.20
2018-07-24T17:20:52.824Z,5.70
2018-07-24T17:23:21.532Z,8.83
2018-07-24T17:25:54.189Z,9.07
2018-07-24T17:28:22.917Z,8.20
2018-07-24T17:30:55.588Z,7.70
2018-07-24T17:33:24.265Z,8.53
2018-07-24T17:35:58.431Z,6.63
2018-07-24T17:38:27.864Z,6.83
2018-07-24T17:40:57.101Z,7.23
2018-07-24T17:43:25.799Z,7.10
2018-07-24T17:45:54.449Z,7.03
2018-07-24T17:48:23.644Z,8.43
2018-07-24T17:50:55.920Z,6.73
2018-07-24T17:53:24.633Z,6.83
2018-07-24T17:55:53.820Z,10.63
2018-07-24T17:58:27.988Z,9.33
2018-07-24T18:00:57.079Z,7.33
2018-07-24T18:03:28.417Z,7.67
2018-07-24T18:05:57.247Z,6.47
2018-07-24T18:08:25.900Z,6.60
2018-07-24T18:10:57.465Z,6.37
2018-07-24T18:13:26.133Z,6.43
2018-07-24T18:15:56.413Z,8.13
2018-07-24T18:18:25.043Z,5.33
2018-07-24T18:20:53.688Z,6.83
2018-07-24T18:23:22.234Z,8.27
2018-07-24T18:25:50.947Z,7.87
2018-07-24T18:28:19.556Z,7.93
2018-07-24T18:30:48.193Z,7.30
2018-07-24T18:33:16.889Z,9.10
2018-07-24T18:35:50.215Z,7.60
2018-07-24T18:38:18.851Z,6.00
2018-07-24T18:40:47.568Z,7.03
2018-07-24T18:43:16.235Z,8.87
2018-07-24T18:45:44.860Z,6.20
2018-07-24T18:48:13.500Z,7.03
2018-07-24T18:50:42.104Z,9.17
2018-07-24T18:53:10.749Z,8.77
2018-07-24T18:55:39.656Z,10.90
2018-07-24T18:58:08.514Z,8.43
2018-07-24T19:00:37.854Z,9.23
2018-07-24T19:03:06.496Z,11.40
2018-07-24T19:05:35.113Z,8.50
2018-07-24T19:08:13.064Z,6.67
2018-07-24T19:10:42.001Z,8.67
2018-07-24T19:13:11.056Z,7.07
2018-07-24T19:15:39.700Z,8.70
2018-07-24T19:18:08.425Z,7.67
2018-07-24T19:20:37.072Z,7.07
2018-07-24T19:23:05.696Z,8.93
2018-07-24T19:25:34.312Z,9.77
2018-07-24T19:28:02.990Z,8.13
2018-07-24T19:30:31.622Z,8.87
2018-07-24T19:33:00.270Z,8.97
2018-07-24T19:35:28.958Z,8.00
2018-07-24T19:38:14.957Z,9.27
2018-07-24T19:40:43.931Z,8.40
2018-07-24T19:43:12.559Z,10.07
2018-07-24T19:45:41.225Z,7.57
2018-07-24T19:48:10.872Z,7.90
2018-07-24T19:50:39.512Z,9.83
2018-07-24T19:53:08.135Z,7.73
2018-07-24T19:55:36.752Z,8.83
2018-07-24T19:58:05.467Z,9.83
2018-07-24T20:00:34.068Z,8.70
2018-07-24T20:03:02.685Z,7.67
2018-07-24T20:05:31.308Z,10.17
2018-07-24T20:07:59.995Z,7.23
2018-07-24T20:10:28.637Z,7.33
2018-07-24T20:12:57.229Z,7.07
2018-07-24T20:15:25.846Z,9.43
2018-07-24T20:17:54.448Z,8.53
2018-07-24T20:20:23.063Z,10.03
2018-07-24T20:22:51.773Z,8.53
2018-07-24T20:25:20.392Z,7.47
2018-07-24T20:27:49.008Z,8.63
2018-07-24T20:30:17.636Z,9.67
2018-07-24T20:32:46.290Z,13.97
2018-07-24T20:35:14.955Z,8.40
2018-07-24T20:37:43.653Z,8.27
2018-07-24T20:40:12.288Z,8.20
2018-07-24T20:42:40.948Z,9.53
2018-07-24T20:46:12.568Z,9.63
2018-07-24T20:48:41.260Z,12.90
2018-07-24T20:51:10.226Z,11.80
2018-07-24T20:53:38.891Z,9.40
2018-07-24T20:56:08.512Z,14.07
2018-07-24T20:58:42.754Z,12.30
2018-07-24T21:01:14.197Z,10.10
2018-07-24T21:03:43.048Z,10.97
2018-07-24T21:06:11.738Z,10.73
2018-07-24T21:08:40.347Z,11.10
2018-07-24T21:11:08.985Z,10.67
2018-07-24T21:13:37.607Z,12.97
2018-07-24T21:16:06.224Z,12.67
2018-07-24T21:18:34.850Z,12.53
2018-07-24T21:21:03.497Z,11.93
2018-07-24T21:23:31.795Z,11.27
2018-07-24T21:26:00.579Z,12.17
2018-07-24T21:28:29.203Z,10.60
2018-07-24T21:30:57.960Z,13.73
2018-07-24T21:33:26.601Z,11.90
2018-07-24T21:35:55.319Z,13.17
2018-07-24T21:38:23.925Z,12.87
2018-07-24T21:40:52.544Z,13.43
2018-07-24T21:43:21.151Z,12.13
2018-07-24T21:45:49.752Z,12.07
2018-07-24T21:48:18.055Z,11.77
2018-07-24T21:50:46.707Z,10.53
2018-07-24T21:53:15.319Z,12.03
2018-07-24T21:55:43.963Z,11.63
2018-07-24T21:58:12.563Z,11.23
2018-07-24T22:00:41.224Z,11.80
2018-07-24T22:03:09.912Z,11.20
2018-07-24T22:05:38.521Z,13.33
2018-07-24T22:08:14.233Z,11.13
2018-07-24T22:10:46.116Z,11.83
2018-07-24T22:13:14.371Z,12.60
2018-07-24T22:15:42.983Z,14.00
2018-07-24T22:18:18.366Z,10.43
2018-07-24T22:20:48.733Z,12.07
2018-07-24T22:23:21.893Z,14.77
2018-07-24T22:25:54.988Z,20.47
2018-07-24T22:28:24.301Z,11.80
2018-07-24T22:30:52.924Z,11.17
2018-07-24T22:33:21.585Z,12.93
2018-07-24T22:35:50.199Z,10.80
2018-07-24T22:38:18.992Z,12.13
2018-07-24T22:40:47.700Z,12.63
2018-07-24T22:43:16.331Z,11.07
2018-07-24T22:45:45.028Z,10.70
2018-07-24T22:48:14.036Z,12.07
2018-07-24T22:50:42.656Z,15.50
2018-07-24T22:53:11.277Z,11.33
2018-07-24T22:55:41.161Z,12.63
2018-07-24T22:58:10.893Z,11.47
2018-07-24T23:00:40.196Z,10.97
2018-07-24T23:03:08.844Z,11.33
2018-07-24T23:05:38.194Z,12.70
2018-07-24T23:08:06.884Z,13.33
2018-07-24T23:10:35.532Z,13.43
2018-07-24T23:13:04.833Z,13.77
2018-07-24T23:15:33.750Z,11.27
2018-07-24T23:18:02.416Z,12.07
2018-07-24T23:20:31.212Z,11.53
2018-07-24T23:22:59.852Z,10.87
2018-07-24T23:25:28.480Z,10.67
2018-07-24T23:27:57.111Z,11.07
2018-07-24T23:30:25.748Z,13.50
2018-07-24T23:32:54.372Z,11.00
2018-07-24T23:35:23.033Z,11.07
2018-07-24T23:37:52.120Z,11.60
2018-07-24T23:40:20.752Z,12.50
2018-07-24T23:42:50.056Z,11.10
2018-07-24T23:45:19.500Z,12.07
2018-07-24T23:47:48.176Z,11.27
2018-07-24T23:50:16.828Z,11.10
2018-07-24T23:52:45.451Z,12.50
2018-07-24T23:55:14.140Z,11.50
2018-07-24T23:57:42.784Z,11.33
